Time;durP1;ratioP1;P1;durP2;ratioP2;P2;SDS_P1;SDS_P2;PMS_P1;PMS_P2;Temp;Humidity;BMP_temperature;BMP_pressure;BME280_temperature;BME280_humidity;BME280_pressure;Samples;Min_cycle;Max_cycle;Signal;HPM_P1;HPM_P2
2023/12/11 00:01:43;;;;;;;2.53;1.63;;;;;;;8.76;71.10;95291.66;4986841;28;20263;-69
2023/12/11 00:04:09;;;;;;;4.40;1.50;;;;;;;8.71;70.94;95294.50;4987194;28;20259;-71
2023/12/11 00:06:34;;;;;;;3.70;1.50;;;;;;;8.73;71.42;95283.97;4986636;28;20800;-70
2023/12/11 00:08:59;;;;;;;2.73;1.47;;;;;;;8.69;71.71;95298.97;4986712;28;20670;-70
2023/12/11 00:11:25;;;;;;;2.60;1.47;;;;;;;8.67;71.36;95288.63;4986782;28;20173;-70
2023/12/11 00:13:50;;;;;;;5.20;1.80;;;;;;;8.66;72.67;95288.69;4993422;28;20294;-71
2023/12/11 00:16:19;;;;;;;3.03;1.30;;;;;;;8.72;71.78;95277.91;5004961;28;20227;-71
2023/12/11 00:18:45;;;;;;;4.70;1.70;;;;;;;8.76;72.18;95284.66;5006556;28;20184;-70
2023/12/11 00:21:10;;;;;;;3.63;1.63;;;;;;;8.51;73.41;95292.16;5005979;28;21001;-69
2023/12/11 00:23:36;;;;;;;3.37;1.20;;;;;;;8.60;72.60;95297.72;5006080;28;20179;-70
2023/12/11 00:26:01;;;;;;;3.47;1.50;;;;;;;8.59;73.14;95298.63;5006022;28;20272;-71
2023/12/11 00:28:26;;;;;;;3.07;1.10;;;;;;;8.54;73.38;95302.44;5002582;28;20633;-70
2023/12/11 00:30:52;;;;;;;4.43;1.50;;;;;;;8.59;74.33;95303.88;4986335;28;20648;-67
2023/12/11 00:33:17;;;;;;;4.70;1.70;;;;;;;8.55;74.89;95301.50;4992464;28;20204;-69
2023/12/11 00:35:44;;;;;;;4.77;1.60;;;;;;;8.51;75.08;95300.84;5006343;28;20192;-69
2023/12/11 00:38:09;;;;;;;2.90;1.33;;;;;;;8.56;74.99;95304.03;5005918;28;20927;-70
2023/12/11 00:40:35;;;;;;;5.67;1.57;;;;;;;8.42;76.00;95306.53;5005881;28;20434;-69
2023/12/11 00:43:00;;;;;;;3.20;1.80;;;;;;;8.30;76.98;95317.63;4989852;28;20255;-69
2023/12/11 00:45:26;;;;;;;4.10;2.10;;;;;;;8.54;76.28;95305.06;4997081;28;20172;-69
2023/12/11 00:47:51;;;;;;;2.40;1.53;;;;;;;8.60;75.51;95304.75;5005138;28;20291;-69
2023/12/11 00:50:16;;;;;;;2.90;1.60;;;;;;;8.60;76.02;95307.34;4999621;28;20180;-72
2023/12/11 00:52:42;;;;;;;1.83;1.40;;;;;;;8.48;76.04;95308.84;5005355;28;20739;-69
2023/12/11 00:55:08;;;;;;;4.37;1.53;;;;;;;8.53;76.07;95317.28;5005325;28;20677;-69
2023/12/11 00:57:34;;;;;;;4.37;2.13;;;;;;;8.59;75.73;95316.09;5005179;28;20210;-69
2023/12/11 00:59:59;;;;;;;6.60;3.20;;;;;;;8.55;76.84;95319.81;5005450;28;20446;-68
2023/12/11 01:02:25;;;;;;;4.23;1.90;;;;;;;8.60;76.84;95317.81;5005132;28;20184;-68
2023/12/11 01:04:50;;;;;;;6.57;1.90;;;;;;;8.61;76.61;95314.25;4990395;28;20183;-68
2023/12/11 01:07:15;;;;;;;8.07;1.53;;;;;;;8.61;77.40;95320.31;4985492;28;20212;-68
2023/12/11 01:09:41;;;;;;;3.67;1.57;;;;;;;8.60;77.82;95331.72;4986317;28;20193;-69
2023/12/11 01:12:07;;;;;;;5.50;2.47;;;;;;;8.57;77.68;95324.03;4984878;28;20191;-70
2023/12/11 01:14:32;;;;;;;9.97;2.07;;;;;;;8.62;78.12;95332.50;4990374;28;20207;-69
2023/12/11 01:16:58;;;;;;;4.60;1.70;;;;;;;8.60;77.86;95328.28;5003387;28;20215;-70
2023/12/11 01:19:23;;;;;;;2.57;1.63;;;;;;;8.66;78.23;95349.69;4993134;28;20264;-70
2023/12/11 01:21:48;;;;;;;5.87;2.03;;;;;;;8.54;78.71;95336.44;5000606;28;20172;-69
2023/12/11 01:24:14;;;;;;;4.90;1.80;;;;;;;8.54;78.44;95334.66;5000478;28;20173;-70
2023/12/11 01:26:39;;;;;;;1.70;1.20;;;;;;;8.58;78.46;95325.72;5010652;28;20260;-69
2023/12/11 01:29:05;;;;;;;2.70;1.23;;;;;;;8.57;78.65;95325.81;5001822;28;20172;-69
2023/12/11 01:31:30;;;;;;;5.00;2.50;;;;;;;8.57;78.58;95326.63;4998967;28;20187;-70
2023/12/11 01:33:56;;;;;;;5.03;1.30;;;;;;;8.49;79.23;95318.38;4999270;28;20191;-68
2023/12/11 01:36:21;;;;;;;2.70;1.10;;;;;;;8.50;79.29;95327.88;4988226;28;20193;-71
2023/12/11 01:38:47;;;;;;;3.00;1.63;;;;;;;8.55;79.03;95331.13;5005266;28;20188;-69
2023/12/11 01:41:13;;;;;;;2.47;1.70;;;;;;;8.58;79.27;95351.03;5004941;28;20262;-68
2023/12/11 01:43:38;;;;;;;2.80;1.27;;;;;;;8.62;79.08;95342.09;5001470;28;20184;-70
2023/12/11 01:46:13;;;;;;;5.27;1.50;;;;;;;8.65;79.00;95349.78;4987272;28;20196;-70
2023/12/11 01:48:39;;;;;;;1.67;1.27;;;;;;;8.57;80.10;95351.94;4988614;28;20176;-69
2023/12/11 01:51:05;;;;;;;2.73;1.53;;;;;;;8.58;80.00;95349.25;4997600;28;20445;-70
2023/12/11 01:53:32;;;;;;;1.93;1.30;;;;;;;8.68;79.92;95355.69;5004167;28;21017;-70
2023/12/11 01:55:58;;;;;;;4.50;1.63;;;;;;;8.67;79.05;95355.78;4988251;28;20420;-69
2023/12/11 01:58:24;;;;;;;2.77;1.30;;;;;;;8.76;79.55;95354.44;4987759;28;20459;-70
2023/12/11 02:00:51;;;;;;;3.87;1.00;;;;;;;8.71;79.50;95352.06;4988240;28;20188;-69
2023/12/11 02:03:17;;;;;;;2.57;1.30;;;;;;;8.74;79.16;95364.13;4989130;28;20412;-71
2023/12/11 02:05:43;;;;;;;2.53;1.30;;;;;;;8.81;79.81;95360.25;5014829;28;20416;-70
2023/12/11 02:08:09;;;;;;;3.00;1.50;;;;;;;9.25;82.80;95352.59;5016459;28;20458;-70
2023/12/11 02:10:36;;;;;;;2.57;1.20;;;;;;;9.94;79.17;95345.22;5021347;28;20416;-69
2023/12/11 02:13:03;;;;;;;1.60;1.10;;;;;;;9.46;77.14;95350.56;5003703;28;20454;-68
2023/12/11 02:15:43;;;;;;;1.40;1.20;;;;;;;9.01;78.51;95352.19;4990902;28;20510;-68
2023/12/11 02:18:10;;;;;;;1.53;1.00;;;;;;;8.95;79.46;95362.97;4994065;28;20455;-70
2023/12/11 02:20:37;;;;;;;3.80;1.20;;;;;;;8.94;79.60;95353.44;4990532;28;20415;-68
2023/12/11 02:23:41;;;;;;;1.60;1.10;;;;;;;8.81;79.70;95348.03;5007216;28;20426;-69
2023/12/11 02:26:16;;;;;;;3.93;1.20;;;;;;;8.78;79.98;95344.72;4990647;28;20433;-69
2023/12/11 02:28:42;;;;;;;1.43;1.13;;;;;;;8.86;80.21;95345.19;5005963;28;20423;-68
2023/12/11 02:31:08;;;;;;;2.13;1.93;;;;;;;8.87;80.33;95357.31;5006774;28;21035;-70
2023/12/11 02:33:34;;;;;;;3.20;1.20;;;;;;;8.74;80.63;95348.44;4997078;28;20455;-69
2023/12/11 02:36:00;;;;;;;2.20;1.20;;;;;;;8.66;82.38;95352.31;4986727;28;20870;-70
2023/12/11 02:38:25;;;;;;;2.00;1.10;;;;;;;8.39;83.04;95364.19;4984112;28;20432;-70
2023/12/11 02:40:50;;;;;;;1.73;1.40;;;;;;;8.56;82.33;95358.13;4984854;28;20181;-69
2023/12/11 02:43:16;;;;;;;1.57;1.10;;;;;;;8.51;83.16;95360.97;4985055;28;20188;-69
2023/12/11 02:45:42;;;;;;;4.30;1.23;;;;;;;8.60;83.16;95363.09;4984617;28;20185;-70
2023/12/11 02:48:08;;;;;;;1.57;1.03;;;;;;;8.31;84.02;95371.56;4984255;28;20205;-68
2023/12/11 02:50:34;;;;;;;1.40;1.00;;;;;;;8.57;82.95;95365.84;4994528;28;20430;-68
2023/12/11 02:53:02;;;;;;;1.20;1.07;;;;;;;8.62;82.87;95352.53;4990488;28;20416;-70
2023/12/11 02:55:28;;;;;;;1.30;0.97;;;;;;;8.71;82.14;95353.84;4988031;28;20268;-69
2023/12/11 02:58:01;;;;;;;3.10;1.60;;;;;;;8.68;82.39;95360.06;4987656;28;21016;-69
2023/12/11 03:00:28;;;;;;;1.33;1.00;;;;;;;8.72;82.01;95363.34;4987917;28;20454;-70
2023/12/11 03:02:54;;;;;;;1.53;1.20;;;;;;;8.49;84.09;95362.81;4986469;28;20510;-69
2023/12/11 03:05:20;;;;;;;2.50;1.37;;;;;;;8.66;82.33;95359.31;4989065;28;20469;-68
2023/12/11 03:07:45;;;;;;;3.07;1.37;;;;;;;8.75;82.57;95347.53;5001637;28;21061;-69
2023/12/11 03:10:10;;;;;;;2.80;1.30;;;;;;;8.63;82.55;95349.84;4997534;28;20184;-68
2023/12/11 03:12:36;;;;;;;1.60;1.30;;;;;;;8.80;82.34;95346.34;4987804;28;20544;-69
2023/12/11 03:15:03;;;;;;;1.40;1.30;;;;;;;8.68;82.67;95363.53;4987360;28;20207;-70
2023/12/11 03:17:29;;;;;;;2.30;1.53;;;;;;;8.77;82.18;95353.53;4999428;28;20287;-70
2023/12/11 03:19:54;;;;;;;4.00;1.90;;;;;;;8.73;83.05;95347.59;5001040;28;20513;-69
2023/12/11 03:22:19;;;;;;;1.77;1.67;;;;;;;8.74;82.61;95343.19;4988714;28;20183;-68
2023/12/11 03:24:46;;;;;;;4.53;1.80;;;;;;;8.66;83.17;95334.00;4987965;28;20176;-68
2023/12/11 03:27:11;;;;;;;10.80;4.20;;;;;;;8.74;82.98;95332.75;4987115;28;20205;-69
2023/12/11 03:29:37;;;;;;;2.20;2.00;;;;;;;8.85;82.72;95330.41;4988065;28;20435;-70
2023/12/11 03:32:02;;;;;;;4.10;2.40;;;;;;;8.71;82.90;95335.53;4986286;28;20296;-70
2023/12/11 03:34:28;;;;;;;2.23;1.93;;;;;;;8.70;83.44;95337.31;4999892;28;20204;-71
2023/12/11 03:36:53;;;;;;;3.60;2.17;;;;;;;8.71;83.09;95335.53;4987555;28;20357;-70
2023/12/11 03:39:18;;;;;;;2.50;2.30;;;;;;;8.84;82.81;95336.56;4986898;28;20235;-68
2023/12/11 03:41:44;;;;;;;1.80;1.70;;;;;;;8.74;83.31;95338.84;4987184;28;20177;-68
2023/12/11 03:44:10;;;;;;;2.43;1.90;;;;;;;8.86;82.37;95339.94;5003696;28;20246;-68
2023/12/11 03:46:35;;;;;;;2.60;2.20;;;;;;;8.74;83.17;95327.50;5006380;28;20204;-69
2023/12/11 03:49:01;;;;;;;7.40;3.47;;;;;;;8.76;82.80;95323.88;4998995;28;20923;-68
2023/12/11 03:51:26;;;;;;;4.47;2.90;;;;;;;8.80;82.73;95328.03;4993298;28;20652;-68
2023/12/11 03:53:52;;;;;;;2.90;2.70;;;;;;;8.85;82.55;95333.00;4986571;28;20279;-69
2023/12/11 03:56:17;;;;;;;3.67;2.70;;;;;;;8.69;83.19;95320.78;4986757;28;20188;-68
2023/12/11 03:58:43;;;;;;;3.73;3.13;;;;;;;8.78;83.11;95332.50;4987020;28;20181;-68
2023/12/11 04:01:08;;;;;;;3.10;2.80;;;;;;;8.80;83.21;95332.41;4986927;28;20293;-68
2023/12/11 04:03:34;;;;;;;5.43;2.70;;;;;;;8.84;82.40;95331.34;5002010;28;20253;-70
2023/12/11 04:05:59;;;;;;;3.30;2.53;;;;;;;8.86;82.74;95334.72;4986991;28;20268;-70
2023/12/11 04:08:24;;;;;;;3.93;2.10;;;;;;;8.90;83.36;95336.22;4986662;28;20201;-69
2023/12/11 04:10:50;;;;;;;2.13;1.93;;;;;;;8.82;83.27;95339.25;4993402;28;20172;-71
2023/12/11 04:13:15;;;;;;;1.60;1.40;;;;;;;8.80;83.36;95335.88;5005193;28;20215;-70
2023/12/11 04:15:41;;;;;;;5.67;1.60;;;;;;;8.81;83.51;95332.34;4986929;28;20254;-67
2023/12/11 04:18:06;;;;;;;4.50;1.63;;;;;;;8.88;83.11;95317.13;5004353;28;20196;-71
2023/12/11 04:20:32;;;;;;;1.73;1.00;;;;;;;8.92;83.30;95317.81;5006575;28;20287;-68
2023/12/11 04:22:57;;;;;;;2.17;1.57;;;;;;;8.97;83.47;95318.41;5006611;28;20272;-69
2023/12/11 04:25:23;;;;;;;1.80;1.67;;;;;;;8.84;84.08;95307.78;5004397;28;20184;-68
2023/12/11 04:27:48;;;;;;;2.17;1.13;;;;;;;8.94;83.63;95301.13;4988795;28;20192;-68
2023/12/11 04:30:14;;;;;;;1.70;1.60;;;;;;;8.96;83.72;95301.03;5003285;28;20787;-69
2023/12/11 04:32:39;;;;;;;4.13;1.37;;;;;;;8.94;83.54;95293.25;4990254;28;20180;-68
2023/12/11 04:35:05;;;;;;;2.70;1.50;;;;;;;8.94;83.79;95292.44;5002844;28;20210;-68
2023/12/11 04:37:30;;;;;;;2.73;2.00;;;;;;;8.99;83.63;95287.78;5002607;28;20236;-68
2023/12/11 04:39:56;;;;;;;1.63;1.53;;;;;;;8.98;84.23;95280.88;4989829;28;20965;-71
2023/12/11 04:42:21;;;;;;;1.93;1.50;;;;;;;8.97;84.29;95284.41;5007649;28;20180;-70
2023/12/11 04:44:46;;;;;;;1.80;1.70;;;;;;;9.01;84.12;95284.16;5012753;28;20270;-70
2023/12/11 04:47:12;;;;;;;4.33;2.30;;;;;;;8.98;84.14;95291.34;4998715;28;20706;-68
2023/12/11 04:49:37;;;;;;;2.70;2.00;;;;;;;9.07;84.27;95312.59;4994809;28;20222;-69
2023/12/11 04:52:03;;;;;;;2.33;1.73;;;;;;;9.05;84.50;95313.63;5001305;28;20181;-69
2023/12/11 04:54:28;;;;;;;1.70;1.60;;;;;;;8.99;85.07;95321.78;5011343;28;20196;-69
2023/12/11 04:56:54;;;;;;;2.53;1.77;;;;;;;8.98;84.52;95328.81;5005058;28;20283;-70
2023/12/11 04:59:19;;;;;;;3.63;1.63;;;;;;;9.02;84.65;95327.69;4993601;28;20181;-69
2023/12/11 05:01:45;;;;;;;1.63;1.53;;;;;;;9.04;84.50;95332.84;4997986;28;20497;-68
2023/12/11 05:04:10;;;;;;;2.37;1.60;;;;;;;9.10;84.58;95338.59;4988568;28;20208;-68
2023/12/11 05:06:36;;;;;;;4.30;1.50;;;;;;;9.04;85.03;95338.91;4998298;28;20757;-68
2023/12/11 05:09:01;;;;;;;3.23;1.43;;;;;;;9.07;84.73;95338.78;5006110;28;20180;-68
2023/12/11 05:11:26;;;;;;;7.17;1.80;;;;;;;9.11;84.52;95344.66;5006133;28;20184;-70
2023/12/11 05:13:52;;;;;;;9.23;2.70;;;;;;;9.18;83.79;95332.94;5005918;28;20196;-67
2023/12/11 05:16:17;;;;;;;2.63;1.90;;;;;;;9.20;83.79;95330.25;5002675;28;20184;-70
2023/12/11 05:18:42;;;;;;;4.80;2.20;;;;;;;9.22;83.79;95305.66;4987521;28;20560;-69
2023/12/11 05:21:09;;;;;;;7.97;2.27;;;;;;;9.26;83.76;95290.59;4987120;28;20551;-68
2023/12/11 05:23:35;;;;;;;3.00;2.10;;;;;;;9.24;83.92;95289.88;4987042;28;20172;-70
2023/12/11 05:26:01;;;;;;;2.50;2.30;;;;;;;9.21;83.92;95295.25;4986870;28;20424;-69
2023/12/11 05:28:26;;;;;;;4.13;2.53;;;;;;;9.26;83.44;95298.47;4987144;28;20432;-69
2023/12/11 05:30:52;;;;;;;2.70;2.50;;;;;;;9.18;84.12;95296.28;5000505;28;20500;-69
2023/12/11 05:33:17;;;;;;;3.20;2.90;;;;;;;9.17;84.24;95301.63;4995124;28;20199;-67
2023/12/11 05:35:43;;;;;;;7.70;3.47;;;;;;;9.21;84.20;95287.41;4992673;28;20187;-69
2023/12/11 05:38:08;;;;;;;3.93;2.90;;;;;;;9.24;83.80;95292.50;4994013;28;21015;-68
2023/12/11 05:40:34;;;;;;;3.77;3.40;;;;;;;9.18;84.14;95293.66;5005578;28;20176;-68
2023/12/11 05:42:59;;;;;;;4.30;3.40;;;;;;;9.23;83.90;95307.34;5005468;28;20176;-68
2023/12/11 05:45:25;;;;;;;4.90;3.87;;;;;;;9.28;83.55;95314.94;5005160;28;20246;-68
2023/12/11 05:47:51;;;;;;;7.03;3.90;;;;;;;9.26;84.13;95320.28;4999231;28;20270;-68
2023/12/11 05:50:16;;;;;;;3.83;3.33;;;;;;;9.33;84.03;95318.16;4997596;28;20420;-69
2023/12/11 05:52:42;;;;;;;3.50;3.07;;;;;;;9.31;84.14;95309.53;4986006;28;20828;-69
2023/12/11 05:55:07;;;;;;;3.73;3.43;;;;;;;9.30;84.20;95289.50;4985582;28;20204;-68
2023/12/11 05:57:33;;;;;;;3.47;3.17;;;;;;;9.31;83.80;95272.91;4985178;28;20200;-70
2023/12/11 05:59:59;;;;;;;3.40;3.07;;;;;;;9.31;83.59;95275.50;4985639;28;20177;-70
2023/12/11 06:02:25;;;;;;;3.47;3.17;;;;;;;9.25;84.32;95252.28;4995745;28;20188;-70
2023/12/11 06:04:51;;;;;;;4.57;3.50;;;;;;;9.25;84.84;95257.53;4991391;28;20183;-69
2023/12/11 06:07:19;;;;;;;3.93;3.53;;;;;;;9.22;84.45;95263.78;4985673;28;20491;-69
2023/12/11 06:09:44;;;;;;;5.43;3.00;;;;;;;9.31;84.16;95255.41;4985960;28;20416;-69
2023/12/11 06:12:10;;;;;;;3.50;2.90;;;;;;;9.30;84.28;95258.94;4994205;28;20441;-70
2023/12/11 06:14:39;;;;;;;3.23;2.80;;;;;;;9.33;84.13;95253.53;5005009;28;20971;-70
2023/12/11 06:17:05;;;;;;;4.73;3.60;;;;;;;9.36;83.83;95267.41;4989361;28;20601;-68
2023/12/11 06:19:30;;;;;;;4.60;4.20;;;;;;;9.30;84.22;95266.78;4986537;28;20422;-70
2023/12/11 06:21:56;;;;;;;4.33;3.80;;;;;;;9.32;84.12;95270.16;5001197;28;20219;-69
2023/12/11 06:24:21;;;;;;;5.80;5.30;;;;;;;9.41;83.61;95276.66;4998772;28;20715;-70
2023/12/11 06:26:46;;;;;;;5.27;4.40;;;;;;;9.40;83.59;95279.34;4994274;28;20227;-67
2023/12/11 06:29:12;;;;;;;12.13;4.87;;;;;;;9.46;83.40;95276.41;5008164;28;20221;-69
2023/12/11 06:31:37;;;;;;;5.40;4.70;;;;;;;9.31;84.03;95267.66;4989377;28;20188;-70
2023/12/11 06:34:03;;;;;;;6.37;5.00;;;;;;;9.34;84.04;95251.75;4994030;28;20200;-70
2023/12/11 06:36:29;;;;;;;6.40;5.03;;;;;;;9.31;83.83;95238.88;4998218;28;20207;-69
2023/12/11 06:38:54;;;;;;;8.23;4.47;;;;;;;9.35;83.86;95221.19;5006985;28;20176;-68
2023/12/11 06:41:20;;;;;;;7.40;4.80;;;;;;;9.38;83.65;95221.88;4998654;28;20351;-69
2023/12/11 06:43:52;;;;;;;6.90;6.20;;;;;;;9.33;83.88;95224.75;5008513;28;20924;-69
2023/12/11 06:46:18;;;;;;;6.30;5.13;;;;;;;9.32;83.57;95222.22;5008044;28;20924;-70
2023/12/11 06:48:43;;;;;;;7.80;5.50;;;;;;;9.37;83.55;95241.09;5007407;28;20455;-70
2023/12/11 06:51:08;;;;;;;6.10;5.17;;;;;;;9.25;84.34;95263.59;4995985;28;20268;-68
2023/12/11 06:53:34;;;;;;;7.33;4.77;;;;;;;9.22;84.17;95271.63;4988931;28;20196;-69
2023/12/11 06:55:59;;;;;;;4.40;3.90;;;;;;;9.27;84.48;95276.59;4988598;28;20184;-68
2023/12/11 06:58:25;;;;;;;5.00;4.50;;;;;;;9.28;83.74;95262.56;4988497;28;20197;-68
2023/12/11 07:00:50;;;;;;;5.20;4.37;;;;;;;9.27;84.06;95255.66;4988761;28;20188;-68
2023/12/11 07:03:17;;;;;;;5.10;4.50;;;;;;;9.31;83.49;95257.19;4997949;28;20172;-70
2023/12/11 07:05:43;;;;;;;5.57;4.57;;;;;;;9.26;84.46;95248.72;5008172;28;20263;-69
2023/12/11 07:08:09;;;;;;;5.43;4.90;;;;;;;9.24;84.16;95255.84;5007158;28;21188;-71
2023/12/11 07:10:34;;;;;;;6.70;4.67;;;;;;;9.29;83.99;95228.47;4996719;28;20420;-70
2023/12/11 07:13:00;;;;;;;6.10;5.50;;;;;;;9.26;83.74;95225.16;4988313;28;20238;-68
2023/12/11 07:15:25;;;;;;;5.13;4.63;;;;;;;9.32;83.73;95214.34;5002408;28;20264;-69
2023/12/11 07:17:51;;;;;;;7.23;5.43;;;;;;;9.32;83.95;95214.34;5002949;28;20296;-70
2023/12/11 07:20:16;;;;;;;5.60;5.10;;;;;;;9.24;84.16;95220.03;5008212;28;20651;-70
2023/12/11 07:22:42;;;;;;;6.80;5.30;;;;;;;9.26;84.18;95236.50;4995489;28;20181;-71
2023/12/11 07:25:07;;;;;;;6.00;5.50;;;;;;;9.25;84.41;95253.13;4993729;28;20222;-68
2023/12/11 07:27:34;;;;;;;6.27;5.67;;;;;;;9.32;83.83;95240.53;5025091;28;20203;-70
2023/12/11 07:29:59;;;;;;;7.50;5.33;;;;;;;9.29;83.80;95225.00;5014306;28;20173;-69
2023/12/11 07:32:25;;;;;;;6.20;5.63;;;;;;;9.26;84.08;95222.53;5012468;28;20446;-69
2023/12/11 07:34:50;;;;;;;8.83;6.33;;;;;;;9.31;84.03;95221.38;5002637;28;20207;-70
2023/12/11 07:37:16;;;;;;;5.67;5.17;;;;;;;9.33;83.89;95203.81;5002808;28;20192;-70
2023/12/11 07:39:41;;;;;;;7.17;6.27;;;;;;;9.36;83.69;95192.31;5002209;28;20243;-67
2023/12/11 07:42:06;;;;;;;9.00;6.13;;;;;;;9.50;83.55;95160.91;4999728;28;20176;-68
2023/12/11 07:44:32;;;;;;;11.97;5.80;;;;;;;9.42;83.49;95170.97;5004101;28;20172;-70
2023/12/11 07:46:57;;;;;;;11.30;5.60;;;;;;;9.42;83.63;95172.75;5002283;28;20203;-70
2023/12/11 07:49:23;;;;;;;6.50;5.90;;;;;;;9.32;84.58;95181.16;5013374;28;20235;-69
2023/12/11 07:51:48;;;;;;;7.77;7.07;;;;;;;9.27;84.44;95187.59;4997347;28;20180;-70
2023/12/11 07:54:13;;;;;;;15.73;6.93;;;;;;;9.35;84.58;95190.59;4996386;28;20675;-69
2023/12/11 07:56:40;;;;;;;28.97;7.40;;;;;;;9.40;84.59;95179.88;4987169;28;20208;-70
2023/12/11 07:59:06;;;;;;;20.70;8.00;;;;;;;9.42;84.52;95170.97;4987587;28;20187;-69
2023/12/11 08:01:32;;;;;;;23.67;7.30;;;;;;;9.41;84.47;95169.31;4987577;28;20424;-70
2023/12/11 08:03:58;;;;;;;12.47;5.83;;;;;;;9.41;84.62;95164.06;5000653;28;20731;-70
2023/12/11 08:06:24;;;;;;;13.70;4.33;;;;;;;9.45;83.92;95170.81;4999313;28;20173;-70
2023/12/11 08:08:49;;;;;;;12.17;6.10;;;;;;;9.44;84.61;95168.28;4996100;28;20173;-69
2023/12/11 08:11:21;;;;;;;10.40;5.07;;;;;;;9.49;84.02;95161.00;4996950;28;20304;-72
2023/12/11 08:13:46;;;;;;;11.10;5.90;;;;;;;9.52;84.27;95174.75;5005829;28;20211;-71
2023/12/11 08:16:13;;;;;;;7.20;5.33;;;;;;;9.55;84.42;95163.25;5000230;28;20423;-71
2023/12/11 08:18:40;;;;;;;7.20;5.97;;;;;;;9.61;83.88;95169.91;4997350;28;20568;-70
2023/12/11 08:21:06;;;;;;;10.97;5.30;;;;;;;9.62;83.29;95169.81;5000063;28;20441;-71
2023/12/11 08:23:31;;;;;;;6.70;5.27;;;;;;;9.64;83.76;95164.50;5008989;28;20542;-70
2023/12/11 08:25:57;;;;;;;9.70;5.30;;;;;;;9.58;84.00;95167.47;5000668;28;20208;-70
2023/12/11 08:28:22;;;;;;;7.73;5.40;;;;;;;9.63;83.84;95189.81;4994018;28;20200;-71
2023/12/11 08:30:48;;;;;;;6.90;6.10;;;;;;;9.62;83.95;95203.03;4999918;28;20177;-72
2023/12/11 08:33:13;;;;;;;9.17;6.30;;;;;;;9.61;84.06;95212.63;4995950;28;20551;-72
2023/12/11 08:35:39;;;;;;;6.97;5.67;;;;;;;9.62;83.96;95216.97;4986703;28;20185;-72
2023/12/11 08:38:04;;;;;;;6.70;4.77;;;;;;;9.67;83.97;95212.28;4994663;28;20590;-70
2023/12/11 08:40:31;;;;;;;6.10;5.00;;;;;;;9.59;84.57;95213.66;4998701;28;20655;-71
2023/12/11 08:42:57;;;;;;;9.10;5.90;;;;;;;9.62;84.06;95229.22;5005755;28;20889;-71
2023/12/11 08:45:22;;;;;;;6.50;4.70;;;;;;;9.65;83.89;95226.41;5005131;28;20443;-69
2023/12/11 08:47:48;;;;;;;5.40;4.87;;;;;;;9.62;84.03;95218.75;5004822;28;20231;-71
2023/12/11 08:50:14;;;;;;;6.40;5.10;;;;;;;9.56;84.15;95212.06;5001782;28;20707;-68
2023/12/11 08:52:41;;;;;;;6.00;5.20;;;;;;;9.62;83.76;95189.94;4985734;28;20181;-70
2023/12/11 08:55:07;;;;;;;5.47;4.03;;;;;;;9.59;83.52;95187.47;4985942;28;20523;-71
2023/12/11 08:57:33;;;;;;;4.37;3.97;;;;;;;9.73;82.43;95206.69;5005045;28;20451;-72
2023/12/11 08:59:59;;;;;;;3.30;3.00;;;;;;;9.73;82.06;95216.31;5005577;28;20329;-69
2023/12/11 09:02:25;;;;;;;2.87;2.40;;;;;;;9.85;81.78;95186.78;5005568;28;20415;-71
2023/12/11 09:04:50;;;;;;;2.00;1.80;;;;;;;9.85;81.44;95172.81;5004970;28;20215;-72
2023/12/11 09:07:15;;;;;;;2.10;1.90;;;;;;;9.93;81.07;95167.97;5003679;28;20195;-71
2023/12/11 09:09:41;;;;;;;3.97;2.50;;;;;;;9.92;81.28;95155.78;4985671;28;20180;-70
2023/12/11 09:12:06;;;;;;;2.97;2.00;;;;;;;9.90;81.95;95148.03;4986138;28;20188;-71
2023/12/11 09:14:33;;;;;;;2.63;2.20;;;;;;;9.89;81.82;95150.72;4985145;28;20209;-71
2023/12/11 09:16:59;;;;;;;3.13;2.00;;;;;;;9.96;81.59;95154.66;4993528;28;20212;-72
2023/12/11 09:19:24;;;;;;;10.97;4.20;;;;;;;10.07;81.65;95174.97;5005135;28;20473;-71
2023/12/11 09:21:50;;;;;;;2.73;2.30;;;;;;;10.12;81.37;95178.16;5004862;28;20419;-71
2023/12/11 09:24:15;;;;;;;5.70;2.00;;;;;;;10.01;81.78;95160.47;5004928;28;20187;-70
2023/12/11 09:26:41;;;;;;;8.70;2.60;;;;;;;10.06;81.88;95171.53;5004263;28;20210;-73
2023/12/11 09:29:06;;;;;;;5.80;2.67;;;;;;;10.03;81.98;95197.91;5005271;28;20267;-72
2023/12/11 09:31:32;;;;;;;7.10;2.53;;;;;;;10.01;81.89;95212.88;5004847;28;20636;-71
2023/12/11 09:33:57;;;;;;;1.90;1.70;;;;;;;10.05;82.03;95229.28;5001274;28;20667;-73
2023/12/11 09:36:22;;;;;;;2.50;2.10;;;;;;;10.14;82.19;95215.59;5004668;28;20180;-71
2023/12/11 09:38:48;;;;;;;2.63;2.00;;;;;;;10.02;82.28;95237.34;5005230;28;20175;-71
2023/12/11 09:41:13;;;;;;;2.33;1.63;;;;;;;10.02;82.32;95243.41;5004860;28;20226;-71
2023/12/11 09:43:39;;;;;;;4.63;3.50;;;;;;;10.09;82.07;95238.66;5004976;28;20172;-71
2023/12/11 09:46:08;;;;;;;2.60;1.63;;;;;;;10.08;81.95;95234.31;5003010;28;20632;-72
2023/12/11 09:48:33;;;;;;;5.33;2.00;;;;;;;10.07;82.33;95227.41;5004971;28;20259;-72
2023/12/11 09:51:00;;;;;;;2.90;2.00;;;;;;;10.17;81.91;95225.91;5001566;28;20609;-71
2023/12/11 09:53:30;;;;;;;4.73;1.90;;;;;;;10.07;81.93;95230.88;5004618;28;20200;-71
2023/12/11 09:55:56;;;;;;;1.93;1.50;;;;;;;10.12;81.93;95214.84;5004892;28;20600;-71
2023/12/11 09:58:22;;;;;;;5.67;1.80;;;;;;;10.17;81.48;95202.31;5006652;28;20840;-71
2023/12/11 10:00:48;;;;;;;2.70;1.90;;;;;;;10.14;81.94;95200.72;5008685;28;20465;-71
2023/12/11 10:03:15;;;;;;;2.50;1.57;;;;;;;10.17;82.04;95197.06;5008415;28;20984;-73
2023/12/11 10:05:41;;;;;;;2.43;1.60;;;;;;;10.22;81.64;95197.63;5010306;28;20180;-72
2023/12/11 10:08:06;;;;;;;2.17;1.97;;;;;;;10.17;82.15;95202.31;5008580;28;21048;-71
2023/12/11 10:10:38;;;;;;;1.70;1.60;;;;;;;10.21;81.75;95189.88;5008397;28;20651;-72
2023/12/11 10:13:04;;;;;;;2.10;1.80;;;;;;;10.23;81.85;95208.94;5008560;28;20184;-70
2023/12/11 10:15:32;;;;;;;4.00;2.70;;;;;;;10.25;81.80;95189.59;5008398;28;20434;-72
2023/12/11 10:18:03;;;;;;;4.07;2.03;;;;;;;10.28;81.12;95207.78;4991597;28;20201;-74
2023/12/11 10:20:29;;;;;;;2.83;1.83;;;;;;;10.23;82.03;95215.03;4987266;28;20436;-72
2023/12/11 10:22:54;;;;;;;3.30;2.10;;;;;;;10.28;81.36;95210.38;4989087;28;20423;-72
2023/12/11 10:25:25;;;;;;;3.47;1.53;;;;;;;10.30;81.59;95229.50;4988879;28;20942;-72
2023/12/11 10:27:50;;;;;;;7.87;2.87;;;;;;;10.33;81.18;95225.84;4993608;28;20194;-72
2023/12/11 10:30:18;;;;;;;6.30;2.60;;;;;;;10.31;80.71;95217.22;5008211;28;20523;-72
2023/12/11 10:32:43;;;;;;;8.03;2.53;;;;;;;10.32;80.91;95209.28;5007953;28;20187;-72
2023/12/11 10:35:22;;;;;;;13.50;2.40;;;;;;;10.33;80.69;95184.72;5004697;28;20532;-71
2023/12/11 10:37:48;;;;;;;4.97;2.00;;;;;;;10.36;80.72;95208.13;5008536;28;20203;-72
2023/12/11 10:40:13;;;;;;;11.53;3.57;;;;;;;10.35;81.21;95219.56;5001612;28;20424;-71
2023/12/11 10:42:40;;;;;;;20.33;3.67;;;;;;;10.39;80.99;95209.72;4993677;28;20173;-73
2023/12/11 10:45:07;;;;;;;14.13;2.73;;;;;;;10.41;81.32;95188.66;5008322;28;20183;-72
2023/12/11 10:47:34;;;;;;;7.80;2.30;;;;;;;10.37;80.90;95186.22;5007662;28;20810;-73
2023/12/11 10:50:02;;;;;;;8.33;2.50;;;;;;;10.44;81.14;95191.06;5006111;28;20419;-72
2023/12/11 10:52:28;;;;;;;2.77;2.23;;;;;;;10.50;81.02;95170.53;5007003;28;20461;-72
2023/12/11 10:54:55;;;;;;;2.83;1.83;;;;;;;10.45;80.82;95184.91;5007549;28;20549;-72
2023/12/11 10:57:22;;;;;;;2.70;1.60;;;;;;;10.45;81.18;95187.53;5006126;28;20449;-71
2023/12/11 10:59:50;;;;;;;3.10;1.57;;;;;;;10.45;81.16;95187.53;5006936;28;21269;-73
2023/12/11 11:02:18;;;;;;;2.77;1.83;;;;;;;10.46;81.18;95202.31;5008900;28;21034;-69
2023/12/11 11:04:46;;;;;;;3.10;1.70;;;;;;;10.49;81.15;95199.50;5006587;28;20499;-70
2023/12/11 11:07:23;;;;;;;3.27;1.70;;;;;;;10.56;80.82;95185.91;5000774;28;20549;-71
2023/12/11 11:10:16;;;;;;;2.80;1.67;;;;;;;10.62;80.64;95189.06;5002230;28;20412;-71
2023/12/11 11:13:05;;;;;;;5.70;1.90;;;;;;;10.72;80.71;95188.38;5003640;28;20438;-70
2023/12/11 11:15:30;;;;;;;5.27;1.60;;;;;;;10.71;80.48;95205.06;4996849;28;20530;-70
2023/12/11 11:18:00;;;;;;;8.47;1.63;;;;;;;10.75;80.17;95216.22;5003025;28;20628;-73
2023/12/11 11:21:09;;;;;;;3.57;1.60;;;;;;;10.78;80.39;95216.88;5005417;28;20180;-70
2023/12/11 11:23:45;;;;;;;6.73;1.93;;;;;;;10.70;81.15;95215.66;5010674;28;20842;-70
2023/12/11 11:26:35;;;;;;;2.90;1.80;;;;;;;10.74;81.04;95207.50;5013838;28;20430;-71
2023/12/11 11:29:04;;;;;;;7.33;2.13;;;;;;;10.73;80.77;95210.22;5001052;28;20417;-70
2023/12/11 11:32:02;;;;;;;5.20;1.67;;;;;;;10.72;80.75;95212.00;5009684;28;20431;-71
2023/12/11 11:34:39;;;;;;;18.10;2.80;;;;;;;10.74;80.92;95188.28;4984417;28;20466;-72
2023/12/11 11:37:09;;;;;;;16.00;2.53;;;;;;;10.79;80.64;95184.44;5006970;28;20447;-72